Search for airport 
image banner adimage banner adimage banner ad
image banner ad

EVLA - Liepaja

Located in Liepaja, Latvia

ICAO - EVLA, IATA - LPX

Data provided by Airmate  

General information

Coordinates: N56°31'3" E21°5'49"
Elevation is 18 feet MSL.
Magnetic variation is 6° East
View others Airports in Liepaja District

Operational data

Special qualification required
Current time UTC:
Current local time:
Weather
METAR: EVLA 071920Z AUTO 30003KT 9999 FEW019/// BKN055/// BKN160/// 03/01 Q1007
TAF: TAF EVLA 071705Z 0718/0818 30007KT 9999 OVC015 TEMPO 0718/0724 BKN009 SCT020CB TEMPO 0806/0812 BKN008 SCT015CB
View NOTAMs / SUP AIP / TFR affecting this airport [VIEW]
Communications frequencies: [VIEW]

Runways:

RWY identifierQFULength (ft)Width (ft)SurfaceLDA (ft)
0670°6568131ASPH6568
24250°6568131ASPH6568

Airport contact information

Address: Liepaja Latvia

Satellite view of EVLA